Time;durP1;ratioP1;P1;durP2;ratioP2;P2;SDS_P1;SDS_P2;PMS_P1;PMS_P2;Temp;Humidity;BMP_temperature;BMP_pressure;BME280_temperature;BME280_humidity;BME280_pressure;Samples;Min_cycle;Max_cycle;Signal;HPM_P1;HPM_P2
2021/11/01 00:00:52;;;;;;;3.90;1.50;;;;;;;;;;5006105;28;20025;-57
2021/11/01 00:03:18;;;;;;;3.47;1.65;;;;;;;;;;5003718;28;20048;-58
2021/11/01 00:05:45;;;;;;;2.15;1.42;;;;;;;;;;5002168;28;20036;-58
2021/11/01 00:08:11;;;;;;;2.20;1.42;;;;;;;;;;5000681;28;20045;-58
2021/11/01 00:10:36;;;;;;;4.60;1.50;;;;;;;;;;5004517;28;20040;-58
2021/11/01 00:13:02;;;;;;;3.38;1.60;;;;;;;;;;5001303;28;20052;-58
2021/11/01 00:15:28;;;;;;;2.22;1.60;;;;;;;;;;4999716;28;20119;-57
2021/11/01 00:17:53;;;;;;;1.20;1.10;;;;;;;;;;5001844;28;20024;-57
2021/11/01 00:20:21;;;;;;;2.53;1.38;;;;;;;;;;5001008;28;20026;-57
2021/11/01 00:22:46;;;;;;;2.35;1.70;;;;;;;;;;5000348;28;20025;-57
2021/11/01 00:25:12;;;;;;;3.13;1.70;;;;;;;;;;5003178;28;20044;-56
2021/11/01 00:27:38;;;;;;;9.27;4.07;;;;;;;;;;5002208;28;20034;-57
2021/11/01 00:30:07;;;;;;;6.57;4.63;;;;;;;;;;4999080;28;20034;-58
2021/11/01 00:32:32;;;;;;;8.53;5.33;;;;;;;;;;5003875;28;20058;-58
2021/11/01 00:34:59;;;;;;;9.82;5.97;;;;;;;;;;5004836;28;20029;-58
2021/11/01 00:37:25;;;;;;;9.07;5.68;;;;;;;;;;5002435;28;20026;-57
2021/11/01 00:39:51;;;;;;;11.15;6.03;;;;;;;;;;5003693;28;20028;-57
2021/11/01 00:42:16;;;;;;;12.27;7.30;;;;;;;;;;5004620;28;20408;-57
2021/11/01 00:44:42;;;;;;;11.55;7.68;;;;;;;;;;5001156;28;20052;-56
2021/11/01 00:47:10;;;;;;;10.93;7.32;;;;;;;;;;5002381;28;20033;-58
2021/11/01 00:49:37;;;;;;;10.67;7.20;;;;;;;;;;4996000;28;20022;-57
2021/11/01 00:52:03;;;;;;;11.95;7.60;;;;;;;;;;5003224;28;20499;-56
2021/11/01 00:54:28;;;;;;;12.77;7.57;;;;;;;;;;5001691;28;20034;-57
2021/11/01 00:56:54;;;;;;;14.63;8.80;;;;;;;;;;4993284;28;20034;-57
2021/11/01 00:59:20;;;;;;;11.32;8.25;;;;;;;;;;4995644;28;20066;-56
2021/11/01 01:01:46;;;;;;;13.32;8.75;;;;;;;;;;5003906;28;20060;-56
2021/11/01 01:04:12;;;;;;;13.40;8.10;;;;;;;;;;4995022;28;20050;-57
2021/11/01 01:06:37;;;;;;;14.52;8.02;;;;;;;;;;5001565;28;20029;-57
2021/11/01 01:09:03;;;;;;;12.98;7.80;;;;;;;;;;4999873;28;20102;-58
2021/11/01 01:11:29;;;;;;;12.00;7.15;;;;;;;;;;5000663;28;20034;-57
2021/11/01 01:13:56;;;;;;;10.27;6.25;;;;;;;;;;5000412;28;20045;-57
2021/11/01 01:16:25;;;;;;;6.38;4.50;;;;;;;;;;5000958;28;20038;-57
2021/11/01 01:18:55;;;;;;;7.20;4.50;;;;;;;;;;5002288;28;20092;-57
2021/11/01 01:24:05;;;;;;;7.53;4.45;;;;;;;;;;5002107;28;20077;-57
2021/11/01 01:26:32;;;;;;;7.05;4.20;;;;;;;;;;5002610;28;20042;-57
2021/11/01 01:28:57;;;;;;;4.50;3.28;;;;;;;;;;4998140;28;20026;-57
2021/11/01 01:31:24;;;;;;;6.10;4.22;;;;;;;;;;5016897;28;20032;-57
2021/11/01 01:33:50;;;;;;;6.28;3.83;;;;;;;;;;5002031;28;20105;-57
2021/11/01 01:36:15;;;;;;;5.65;3.95;;;;;;;;;;5014545;28;20056;-57
2021/11/01 01:38:41;;;;;;;5.47;3.50;;;;;;;;;;5002311;28;20021;-57
2021/11/01 01:41:23;;;;;;;5.88;3.55;;;;;;;;;;5000604;28;20109;-58
2021/11/01 01:43:54;;;;;;;6.53;3.90;;;;;;;;;;4998190;28;20388;-57
2021/11/01 01:46:21;;;;;;;5.78;2.78;;;;;;;;;;5002150;28;20021;-57
2021/11/01 01:48:47;;;;;;;3.80;2.47;;;;;;;;;;4999384;28;20023;-57
2021/11/01 01:51:13;;;;;;;5.50;2.50;;;;;;;;;;4997576;28;20030;-57
2021/11/01 01:53:40;;;;;;;3.28;2.10;;;;;;;;;;4998048;28;20026;-57
2021/11/01 01:56:06;;;;;;;4.72;2.38;;;;;;;;;;5002664;28;20025;-56
2021/11/01 01:58:35;;;;;;;4.25;1.90;;;;;;;;;;4999977;28;20193;-57
2021/11/01 02:01:09;;;;;;;3.50;2.43;;;;;;;;;;5018357;28;20053;-57
2021/11/01 02:03:41;;;;;;;4.18;3.13;;;;;;;;;;5014000;28;20273;-57
2021/11/01 02:06:09;;;;;;;4.72;2.63;;;;;;;;;;5000825;28;20547;-58
2021/11/01 02:08:44;;;;;;;4.43;2.40;;;;;;;;;;4997058;28;20034;-57
2021/11/01 02:11:15;;;;;;;3.05;2.00;;;;;;;;;;4996948;28;20034;-56
2021/11/01 02:13:45;;;;;;;3.75;2.40;;;;;;;;;;5002729;28;20061;-57
2021/11/01 02:16:13;;;;;;;2.65;2.10;;;;;;;;;;5002698;28;20168;-57
2021/11/01 02:18:41;;;;;;;4.60;2.00;;;;;;;;;;4998999;28;20026;-57
2021/11/01 02:21:16;;;;;;;3.42;2.15;;;;;;;;;;5002558;28;20028;-57
2021/11/01 02:23:49;;;;;;;4.38;2.80;;;;;;;;;;5003368;28;20476;-58
2021/11/01 02:26:17;;;;;;;4.00;2.55;;;;;;;;;;5002792;28;20026;-57
2021/11/01 02:28:44;;;;;;;4.40;2.28;;;;;;;;;;5007000;28;20477;-56
2021/11/01 02:31:16;;;;;;;4.40;2.80;;;;;;;;;;4996355;28;20077;-57
2021/11/01 02:33:43;;;;;;;4.07;2.40;;;;;;;;;;5004390;28;20029;-57
2021/11/01 02:36:09;;;;;;;2.70;2.00;;;;;;;;;;5004587;28;20025;-57
2021/11/01 02:38:35;;;;;;;3.85;1.92;;;;;;;;;;5000502;28;20500;-57
2021/11/01 02:41:22;;;;;;;2.03;1.83;;;;;;;;;;5005763;28;20049;-57
2021/11/01 02:43:53;;;;;;;2.90;2.10;;;;;;;;;;5003368;28;20028;-57
2021/11/01 02:46:19;;;;;;;4.28;2.25;;;;;;;;;;4996984;28;20026;-57
2021/11/01 02:48:46;;;;;;;4.47;1.90;;;;;;;;;;5005910;28;20037;-57
2021/11/01 02:51:13;;;;;;;3.13;1.98;;;;;;;;;;5003325;28;20049;-57
2021/11/01 02:53:39;;;;;;;2.90;2.20;;;;;;;;;;5004921;28;20052;-57
2021/11/01 02:56:07;;;;;;;5.20;2.72;;;;;;;;;;4997799;28;20476;-58
2021/11/01 02:58:33;;;;;;;2.30;1.97;;;;;;;;;;5004807;28;20488;-57
2021/11/01 03:00:59;;;;;;;6.38;4.72;;;;;;;;;;5004137;28;20038;-57
2021/11/01 03:03:24;;;;;;;13.10;6.55;;;;;;;;;;5002370;28;20144;-57
2021/11/01 03:05:50;;;;;;;9.90;7.18;;;;;;;;;;5004378;28;20035;-57
2021/11/01 03:08:16;;;;;;;11.55;7.20;;;;;;;;;;5000989;28;20395;-56
2021/11/01 03:10:42;;;;;;;11.88;7.07;;;;;;;;;;5001696;28;20472;-57
2021/11/01 03:13:08;;;;;;;9.73;6.68;;;;;;;;;;5001236;28;20022;-57
2021/11/01 03:15:34;;;;;;;12.60;7.05;;;;;;;;;;5006695;28;20034;-57
2021/11/01 03:18:06;;;;;;;11.02;7.07;;;;;;;;;;5001629;28;20018;-57
2021/11/01 03:20:38;;;;;;;11.48;7.57;;;;;;;;;;4999851;28;20460;-58
2021/11/01 03:23:07;;;;;;;10.23;6.65;;;;;;;;;;5001037;28;20033;-57
2021/11/01 03:25:37;;;;;;;10.23;7.20;;;;;;;;;;5003817;28;20113;-57
2021/11/01 03:28:04;;;;;;;12.65;7.93;;;;;;;;;;4995809;28;20054;-58
2021/11/01 03:30:32;;;;;;;12.57;7.95;;;;;;;;;;5005523;28;20037;-57
2021/11/01 03:32:58;;;;;;;12.00;7.60;;;;;;;;;;5003880;28;20033;-57
2021/11/01 03:35:26;;;;;;;11.10;6.93;;;;;;;;;;4998910;28;20056;-57
2021/11/01 03:37:54;;;;;;;11.13;6.57;;;;;;;;;;5001840;28;20559;-57
2021/11/01 03:40:21;;;;;;;10.40;6.75;;;;;;;;;;5002472;28;20041;-57
2021/11/01 03:42:48;;;;;;;12.82;7.10;;;;;;;;;;5002148;28;20028;-57
2021/11/01 03:45:15;;;;;;;10.02;6.25;;;;;;;;;;4997459;28;20026;-57
2021/11/01 03:47:46;;;;;;;12.40;6.72;;;;;;;;;;4998407;28;20464;-57
2021/11/01 03:52:45;;;;;;;9.73;6.35;;;;;;;;;;5005824;28;20034;-57
2021/11/01 03:55:11;;;;;;;10.15;6.50;;;;;;;;;;5005159;28;20088;-58
2021/11/01 03:57:37;;;;;;;10.00;6.38;;;;;;;;;;5004626;28;20026;-57
2021/11/01 04:00:06;;;;;;;8.95;6.10;;;;;;;;;;5004169;28;20052;-57
2021/11/01 04:02:32;;;;;;;10.38;6.10;;;;;;;;;;4995575;28;20770;-58
2021/11/01 04:04:59;;;;;;;10.07;5.82;;;;;;;;;;5002225;28;20045;-58
2021/11/01 04:07:26;;;;;;;8.52;6.32;;;;;;;;;;5001477;28;20085;-58
2021/11/01 04:09:51;;;;;;;10.07;6.32;;;;;;;;;;5002256;28;20030;-58
2021/11/01 04:12:17;;;;;;;10.35;6.43;;;;;;;;;;5002612;28;20097;-58
2021/11/01 04:14:49;;;;;;;10.85;6.32;;;;;;;;;;5004589;28;20026;-58
2021/11/01 04:17:25;;;;;;;11.38;6.10;;;;;;;;;;5001112;28;20029;-58
2021/11/01 04:20:00;;;;;;;;;;;;;;;;;;;;;
2021/11/01 04:22:21;;;;;;;8.60;5.00;;;;;;;;;;5008419;28;20484;-58
2021/11/01 04:24:46;;;;;;;5.68;3.55;;;;;;;;;;5005678;28;20034;-58
2021/11/01 04:27:12;;;;;;;7.55;3.80;;;;;;;;;;5001416;28;20527;-58
2021/11/01 04:29:37;;;;;;;7.50;4.38;;;;;;;;;;5001025;28;20096;-58
2021/11/01 04:32:13;;;;;;;6.60;4.50;;;;;;;;;;5003374;28;20253;-59
2021/11/01 04:34:42;;;;;;;7.05;4.55;;;;;;;;;;4998020;28;20130;-59
2021/11/01 04:37:08;;;;;;;8.13;4.70;;;;;;;;;;5003607;28;20030;-58
2021/11/01 04:55:28;;;;;;;8.35;5.13;;;;;;;;;;5001074;28;20533;-58
2021/11/01 04:57:54;;;;;;;9.23;4.80;;;;;;;;;;4997531;28;20034;-58
2021/11/01 05:00:20;;;;;;;11.82;5.55;;;;;;;;;;5003675;28;20425;-58
2021/11/01 05:02:50;;;;;;;8.88;5.35;;;;;;;;;;4997042;28;20092;-58
2021/11/01 05:05:16;;;;;;;6.97;4.40;;;;;;;;;;5000323;28;20373;-58
2021/11/01 05:07:42;;;;;;;3.63;2.80;;;;;;;;;;5001390;28;20031;-58
2021/11/01 05:10:33;;;;;;;4.07;2.55;;;;;;;;;;4999702;28;20033;-58
2021/11/01 05:12:55;;;;;;;4.53;2.38;;;;;;;;;;4999706;28;20045;-57
2021/11/01 05:17:57;;;;;;;3.67;2.15;;;;;;;;;;5001394;28;20025;-59
2021/11/01 05:23:37;;;;;;;5.80;2.65;;;;;;;;;;4999813;28;20437;-57
2021/11/01 05:31:05;;;;;;;4.97;2.67;;;;;;;;;;4980432;28;20041;-58
2021/11/01 05:35:56;;;;;;;5.32;3.10;;;;;;;;;;5001726;28;20108;-57
2021/11/01 05:38:21;;;;;;;7.60;4.00;;;;;;;;;;5000186;28;20113;-58
2021/11/01 05:40:47;;;;;;;1.75;0.90;;;;;;;;;;4999516;28;20033;-58
2021/11/01 05:43:12;;;;;;;1.42;0.63;;;;;;;;;;5000904;28;20566;-58
2021/11/01 05:45:38;;;;;;;0.90;0.60;;;;;;;;;;4999740;28;20609;-57
2021/11/01 05:48:03;;;;;;;1.15;0.50;;;;;;;;;;4996563;28;20045;-58
2021/11/01 05:50:32;;;;;;;1.58;0.88;;;;;;;;;;4998979;28;20038;-58
2021/11/01 05:53:00;;;;;;;1.20;0.70;;;;;;;;;;5004292;28;20053;-57
2021/11/01 06:03:36;;;;;;;2.55;0.90;;;;;;;;;;5001261;28;20152;-57
2021/11/01 06:06:22;;;;;;;0.85;0.60;;;;;;;;;;5004573;28;20097;-57
2021/11/01 06:09:19;;;;;;;0.85;0.57;;;;;;;;;;4994950;28;22071;-59
2021/11/01 06:14:29;;;;;;;3.33;0.60;;;;;;;;;;5003047;28;20100;-58
2021/11/01 06:16:55;;;;;;;1.60;1.05;;;;;;;;;;4996586;28;20033;-58
2021/11/01 06:19:20;;;;;;;1.10;0.55;;;;;;;;;;4994601;28;20474;-59
2021/11/01 06:21:48;;;;;;;0.88;0.60;;;;;;;;;;5001125;28;20127;-59
2021/11/01 06:25:05;;;;;;;1.58;0.60;;;;;;;;;;4998466;28;20025;-59
2021/11/01 06:27:00;;;;;;;1.85;1.00;;;;;;;;;;4984500;28;20038;-58
2021/11/01 06:29:29;;;;;;;2.40;1.48;;;;;;;;;;4994335;28;20416;-58
2021/11/01 06:32:11;;;;;;;4.40;2.93;;;;;;;;;;5000548;28;20312;-58
2021/11/01 06:38:58;;;;;;;3.50;2.40;;;;;;;;;;5004835;28;20018;-59
2021/11/01 06:50:45;;;;;;;6.78;3.83;;;;;;;;;;5000854;28;20049;-58
2021/11/01 07:17:14;;;;;;;2.75;1.67;;;;;;;;;;4998523;28;20113;-59
2021/11/01 08:25:41;;;;;;;3.50;1.33;;;;;;;;;;5004256;28;20041;-59
2021/11/01 08:36:01;;;;;;;3.22;1.10;;;;;;;;;;4998596;28;20099;-59
2021/11/01 08:48:24;;;;;;;2.75;1.45;;;;;;;;;;5001743;28;20356;-58
2021/11/01 09:36:16;;;;;;;9.63;3.60;;;;;;;;;;4998231;28;20045;-58
2021/11/01 09:41:20;;;;;;;13.15;4.30;;;;;;;;;;5005904;28;20021;-58
2021/11/01 09:43:52;;;;;;;5.72;1.52;;;;;;;;;;5002383;28;20040;-58
2021/11/01 09:46:19;;;;;;;5.90;2.70;;;;;;;;;;5008369;28;20021;-58
2021/11/01 09:48:45;;;;;;;3.03;2.13;;;;;;;;;;5005922;28;20123;-57
2021/11/01 09:51:10;;;;;;;2.55;1.50;;;;;;;;;;5001667;28;20061;-57
2021/11/01 09:53:39;;;;;;;2.55;1.40;;;;;;;;;;4999850;28;20106;-57
2021/11/01 09:56:18;;;;;;;5.53;1.53;;;;;;;;;;5002715;28;20500;-58
2021/11/01 10:01:28;;;;;;;3.22;1.65;;;;;;;;;;5001878;28;20507;-58
2021/11/01 10:03:54;;;;;;;3.88;1.38;;;;;;;;;;4996953;28;20029;-58
2021/11/01 10:06:22;;;;;;;3.72;1.30;;;;;;;;;;5001937;28;20392;-58
2021/11/01 10:08:50;;;;;;;3.47;1.40;;;;;;;;;;4999215;28;20527;-58
2021/11/01 10:11:19;;;;;;;4.88;1.80;;;;;;;;;;5001591;28;20041;-58
2021/11/01 10:13:55;;;;;;;3.08;1.45;;;;;;;;;;4999272;28;20022;-58
2021/11/01 10:19:35;;;;;;;1.90;1.20;;;;;;;;;;4997137;28;20516;-57
2021/11/01 10:22:10;;;;;;;2.28;1.60;;;;;;;;;;4999989;28;20369;-57
2021/11/01 10:24:39;;;;;;;1.90;1.40;;;;;;;;;;5001340;28;20109;-58
2021/11/01 10:27:10;;;;;;;2.17;1.38;;;;;;;;;;5008166;28;20029;-58
2021/11/01 10:29:55;;;;;;;1.58;1.48;;;;;;;;;;5002241;28;20133;-57
2021/11/01 10:32:37;;;;;;;2.83;1.60;;;;;;;;;;4998684;28;20040;-57
2021/11/01 10:35:15;;;;;;;1.48;1.20;;;;;;;;;;4998702;28;20042;-57
2021/11/01 10:38:03;;;;;;;3.35;1.70;;;;;;;;;;5013368;28;20034;-58
2021/11/01 10:40:31;;;;;;;2.88;1.30;;;;;;;;;;5002664;28;20079;-57
2021/11/01 10:43:08;;;;;;;3.05;1.80;;;;;;;;;;5005342;28;20297;-57
2021/11/01 11:11:26;;;;;;;2.65;1.33;;;;;;;;;;5004465;28;20045;-58
2021/11/01 11:19:40;;;;;;;3.30;1.10;;;;;;;;;;5003360;28;20022;-58
2021/11/01 11:47:47;;;;;;;0.90;0.90;;;;;;;;;;5005183;28;20036;-59
2021/11/01 11:50:26;;;;;;;1.23;0.90;;;;;;;;;;5003521;28;20034;-59
2021/11/01 11:52:52;;;;;;;2.45;1.40;;;;;;;;;;5003895;28;20146;-59
2021/11/01 11:55:25;;;;;;;1.83;1.00;;;;;;;;;;4999366;28;20125;-57
2021/11/01 11:57:59;;;;;;;1.42;0.90;;;;;;;;;;4999119;28;20034;-58
2021/11/01 12:00:27;;;;;;;3.08;1.05;;;;;;;;;;5003115;28;20038;-58
2021/11/01 12:02:55;;;;;;;3.17;1.38;;;;;;;;;;5005429;28;20033;-58
2021/11/01 12:05:31;;;;;;;2.17;1.40;;;;;;;;;;5003196;28;20033;-58
2021/11/01 12:08:18;;;;;;;3.65;1.42;;;;;;;;;;4999373;28;20022;-59
2021/11/01 12:18:53;;;;;;;4.32;1.52;;;;;;;;;;5005466;28;20113;-58
2021/11/01 12:21:19;;;;;;;4.40;1.63;;;;;;;;;;5002226;28;20072;-59
2021/11/01 12:23:45;;;;;;;3.63;1.42;;;;;;;;;;5004603;28;20421;-57
2021/11/01 12:26:16;;;;;;;3.92;1.83;;;;;;;;;;5000677;28;20057;-57
2021/11/01 12:28:43;;;;;;;1.95;1.60;;;;;;;;;;4999790;28;20117;-57
2021/11/01 12:31:10;;;;;;;1.25;1.10;;;;;;;;;;4998539;28;20033;-58
2021/11/01 12:33:38;;;;;;;1.20;1.10;;;;;;;;;;5000618;28;20109;-58
2021/11/01 12:36:08;;;;;;;2.33;1.30;;;;;;;;;;5000607;28;20033;-57
2021/11/01 12:38:39;;;;;;;;;;;;;;;;;;5000973;28;20026;-57
2021/11/01 12:57:46;;;;;;;1.38;1.10;;;;;;;;;;4997488;28;20414;-57
2021/11/01 13:00:13;;;;;;;7.75;3.15;;;;;;;;;;4999035;28;20297;-57
2021/11/01 13:02:41;;;;;;;2.55;1.55;;;;;;;;;;5000274;28;20551;-57
2021/11/01 13:05:21;;;;;;;1.98;1.35;;;;;;;;;;4999509;28;20129;-58
2021/11/01 13:08:09;;;;;;;;;;;;;;;;;;5016032;28;20560;-57
2021/11/01 13:18:29;;;;;;;2.13;1.45;;;;;;;;;;4999845;28;20084;-57
2021/11/01 13:21:01;;;;;;;2.75;1.50;;;;;;;;;;5001537;28;20121;-57
2021/11/01 13:23:32;;;;;;;4.07;1.42;;;;;;;;;;4997034;28;20029;-57
2021/11/01 13:29:03;;;;;;;4.45;1.48;;;;;;;;;;5001812;28;20037;-57
2021/11/01 13:37:07;;;;;;;2.75;1.45;;;;;;;;;;5001602;28;20151;-57
2021/11/01 13:39:33;;;;;;;3.55;1.70;;;;;;;;;;4997723;28;20109;-57
2021/11/01 13:41:59;;;;;;;4.18;1.85;;;;;;;;;;4999585;28;20036;-57
2021/11/01 13:44:26;;;;;;;3.03;1.30;;;;;;;;;;4995338;28;20030;-57
2021/11/01 13:46:57;;;;;;;1.90;1.40;;;;;;;;;;4996107;28;20488;-57
2021/11/01 13:49:22;;;;;;;2.42;1.27;;;;;;;;;;5000190;28;20503;-57
2021/11/01 13:51:51;;;;;;;3.20;1.23;;;;;;;;;;4994935;28;20129;-57
2021/11/01 13:54:34;;;;;;;5.88;2.92;;;;;;;;;;4995561;28;20033;-56
2021/11/01 13:57:04;;;;;;;4.88;1.95;;;;;;;;;;4999128;28;20022;-57
2021/11/01 14:29:23;;;;;;;4.22;1.65;;;;;;;;;;5000317;28;20068;-57
2021/11/01 14:34:53;;;;;;;3.55;1.50;;;;;;;;;;5006665;28;20048;-56
2021/11/01 15:23:13;;;;;;;2.55;1.90;;;;;;;;;;5001498;28;20029;-58
2021/11/01 16:17:46;;;;;;;6.30;3.50;;;;;;;;;;5000858;28;20103;-57
2021/11/01 16:19:55;;;;;;;4.30;2.10;;;;;;;;;;5003408;28;20045;-58
2021/11/01 16:22:21;;;;;;;3.28;2.28;;;;;;;;;;5001492;28;20370;-58
2021/11/01 16:24:48;;;;;;;4.43;2.30;;;;;;;;;;5001450;28;20129;-58
2021/11/01 16:27:16;;;;;;;4.50;2.50;;;;;;;;;;5000037;28;20036;-57
2021/11/01 16:32:16;;;;;;;3.63;2.30;;;;;;;;;;5002690;28;20054;-58
2021/11/01 16:34:46;;;;;;;7.80;3.30;;;;;;;;;;4998686;28;20116;-58
2021/11/01 16:37:21;;;;;;;8.43;3.85;;;;;;;;;;5001181;28;20041;-57
2021/11/01 16:39:47;;;;;;;8.50;4.40;;;;;;;;;;5000041;28;20422;-57
2021/11/01 16:42:26;;;;;;;5.55;2.92;;;;;;;;;;5002692;28;20357;-57
2021/11/01 16:44:52;;;;;;;5.85;3.05;;;;;;;;;;5002756;28;20026;-57
2021/11/01 16:47:18;;;;;;;6.70;3.45;;;;;;;;;;5000894;28;20018;-57
2021/11/01 16:49:48;;;;;;;10.73;3.55;;;;;;;;;;4999197;28;20467;-57
2021/11/01 16:52:17;;;;;;;;;;;;;;;;;;5000615;28;20300;-58
2021/11/01 16:55:11;;;;;;;8.15;4.68;;;;;;;;;;5002548;28;19960;-57
2021/11/01 16:57:44;;;;;;;8.55;5.00;;;;;;;;;;5000403;28;20041;-57
2021/11/01 17:05:56;;;;;;;;;;;;;;;;;;;;;
2021/11/01 17:08:36;;;;;;;16.15;7.00;;;;;;;;;;4994752;28;20069;-57
2021/11/01 17:24:55;;;;;;;;;;;;;;;;;;;;;
2021/11/01 17:36:27;;;;;;;;;;;;;;;;;;;;;
2021/11/01 18:40:10;;;;;;;7.85;3.45;;;;;;;;;;5004048;28;20042;-58
2021/11/01 18:42:48;;;;;;;8.60;4.32;;;;;;;;;;5003759;28;20034;-58
2021/11/01 18:53:19;;;;;;;12.90;7.07;;;;;;;;;;5002391;28;20546;-58
2021/11/01 18:55:51;;;;;;;13.80;7.45;;;;;;;;;;5000039;28;20034;-58
2021/11/01 18:58:23;;;;;;;12.80;7.65;;;;;;;;;;4998760;28;20173;-58
2021/11/01 19:00:49;;;;;;;12.57;8.40;;;;;;;;;;5002732;28;20032;-58
2021/11/01 19:03:18;;;;;;;8.95;5.57;;;;;;;;;;5006811;28;20034;-58
2021/11/01 19:05:49;;;;;;;9.02;5.93;;;;;;;;;;5000337;28;20048;-58
2021/11/01 20:06:05;;;;;;;7.93;5.47;;;;;;;;;;4997879;28;20033;-57
2021/11/01 20:09:26;;;;;;;8.20;5.63;;;;;;;;;;4999477;28;20348;-57
2021/11/01 20:11:54;;;;;;;10.32;4.32;;;;;;;;;;4990344;28;20133;-58
2021/11/01 20:14:39;;;;;;;7.50;3.95;;;;;;;;;;4996013;28;20030;-57
2021/11/01 21:26:21;;;;;;;9.98;6.68;;;;;;;;;;4998022;28;20117;-57
2021/11/01 21:28:50;;;;;;;8.73;5.63;;;;;;;;;;4999268;28;20038;-57
2021/11/01 21:31:17;;;;;;;9.35;4.95;;;;;;;;;;5012948;28;20503;-56
2021/11/01 21:33:45;;;;;;;5.72;4.00;;;;;;;;;;4994771;28;20156;-56
2021/11/01 21:36:13;;;;;;;11.32;5.45;;;;;;;;;;4996799;28;20045;-56
2021/11/01 21:38:39;;;;;;;21.90;9.50;;;;;;;;;;5016011;28;20028;-56
2021/11/01 21:41:05;;;;;;;17.80;7.10;;;;;;;;;;4997181;28;20459;-57
2021/11/01 21:43:30;;;;;;;13.35;6.03;;;;;;;;;;4992740;28;20040;-57
2021/11/01 21:45:56;;;;;;;12.38;6.10;;;;;;;;;;4994163;28;20026;-57
2021/11/01 21:48:23;;;;;;;10.05;4.90;;;;;;;;;;4993357;28;20128;-57
2021/11/01 21:50:49;;;;;;;11.27;5.50;;;;;;;;;;4992137;28;20026;-57
2021/11/01 21:53:19;;;;;;;11.43;5.43;;;;;;;;;;4993098;28;20041;-56
2021/11/01 21:55:45;;;;;;;9.05;5.38;;;;;;;;;;4995652;28;20088;-57
2021/11/01 21:58:38;;;;;;;10.23;4.10;;;;;;;;;;4998898;28;20030;-57
2021/11/01 22:25:15;;;;;;;4.85;2.30;;;;;;;;;;4997077;28;20096;-56
2021/11/01 22:33:13;;;;;;;4.22;2.45;;;;;;;;;;4999614;28;20049;-56
2021/11/01 22:55:29;;;;;;;4.72;2.15;;;;;;;;;;4998530;28;20037;-56
2021/11/01 22:57:03;;;;;;;2.58;1.80;;;;;;;;;;5004680;28;20057;-56
2021/11/01 22:59:28;;;;;;;5.35;2.00;;;;;;;;;;5000938;28;20060;-56
2021/11/01 23:01:53;;;;;;;6.15;1.90;;;;;;;;;;5001658;28;20190;-56
2021/11/01 23:31:53;;;;;;;11.20;3.55;;;;;;;;;;5000670;28;20245;-57
2021/11/01 23:34:19;;;;;;;14.40;5.20;;;;;;;;;;5002814;28;20125;-57
2021/11/01 23:36:45;;;;;;;13.90;6.13;;;;;;;;;;5002471;28;20499;-57
2021/11/01 23:39:13;;;;;;;6.07;3.17;;;;;;;;;;4997468;28;20114;-56
2021/11/01 23:41:43;;;;;;;3.13;2.30;;;;;;;;;;5007534;28;20025;-56
2021/11/01 23:44:10;;;;;;;3.92;2.45;;;;;;;;;;5005644;28;20496;-56
2021/11/01 23:46:37;;;;;;;5.50;2.70;;;;;;;;;;5003720;28;20113;-57
2021/11/01 23:49:03;;;;;;;3.78;2.63;;;;;;;;;;5000701;28;20026;-56
2021/11/01 23:51:33;;;;;;;5.32;2.50;;;;;;;;;;5004441;28;20685;-57
2021/11/01 23:56:40;;;;;;;2.70;2.25;;;;;;;;;;4999172;28;20034;-57
2021/11/01 23:59:05;;;;;;;5.68;2.00;;;;;;;;;;5002795;28;20523;-58
